Time;durP1;ratioP1;P1;durP2;ratioP2;P2;SDS_P1;SDS_P2;PMS_P1;PMS_P2;Temp;Humidity;BMP_temperature;BMP_pressure;BME280_temperature;BME280_humidity;BME280_pressure;Samples;Min_cycle;Max_cycle;Signal;HPM_P1;HPM_P2
2021/12/30 00:01:45;;;;;;;3.67;1.00;;;;;;;13.62;100.00;100343.31;4998832;28;20228;-82
2021/12/30 00:04:13;;;;;;;5.40;1.10;;;13.50;99.90;;;13.65;100.00;100345.97;4948734;28;20216;-82
2021/12/30 00:06:42;;;;;;;4.63;1.15;;;;;;;13.59;100.00;100330.94;5010156;28;20213;-82
2021/12/30 00:09:14;;;;;;;0.68;0.50;;;13.60;99.90;;;13.54;100.00;100323.88;4982611;28;20689;-83
2021/12/30 00:11:42;;;;;;;0.40;0.40;;;;;;;13.37;100.00;100324.84;4998618;28;20706;-82
2021/12/30 00:14:31;;;;;;;0.05;0.05;;;13.40;99.90;;;13.23;100.00;100334.63;4961192;28;20224;-83
2021/12/30 00:17:00;;;;;;;8.90;3.13;;;;;;;13.17;100.00;100336.41;4959794;28;20205;-82
2021/12/30 00:19:28;;;;;;;128.60;123.63;;;;;;;13.29;100.00;100355.84;4957630;28;20229;-81
2021/12/30 00:21:56;;;;;;;4.63;1.17;;;;;;;13.23;100.00;100371.81;4931412;28;20253;-83
2021/12/30 00:24:24;;;;;;;584.10;552.92;;;;;;;13.23;100.00;100369.16;4978217;28;20697;-84
2021/12/30 00:26:53;;;;;;;102.93;98.68;;;;;;;13.17;100.00;100373.59;4960605;28;20213;-82
2021/12/30 00:29:24;;;;;;;225.38;214.18;;;;;;;13.47;100.00;100392.09;4980095;28;20201;-82
2021/12/30 00:31:52;;;;;;;16.42;3.72;;;;;;;13.56;100.00;100394.72;4967726;28;20239;-81
2021/12/30 00:34:20;;;;;;;3.85;1.10;;;;;;;13.34;100.00;100385.94;4999368;28;20204;-82
2021/12/30 00:36:49;;;;;;;1.30;0.65;;;;;;;13.27;100.00;100393.94;4997935;28;20211;-82
2021/12/30 00:39:17;;;;;;;3.92;1.33;;;;;;;13.54;100.00;100423.06;4965936;28;20231;-82
2021/12/30 00:41:46;;;;;;;0.40;0.40;;;;;;;13.44;100.00;100406.28;4968017;28;20236;-82
2021/12/30 00:44:14;;;;;;;0.00;0.00;;;;;;;13.35;100.00;100408.06;5013448;28;20208;-82
2021/12/30 00:46:43;;;;;;;0.80;0.40;;;;;;;13.45;100.00;100417.78;4977000;28;20204;-81
2021/12/30 00:49:13;;;;;;;0.10;0.10;;;;;;;13.56;100.00;100412.44;4948909;28;20204;-82
2021/12/30 00:51:41;;;;;;;0.20;0.20;;;;;;;13.39;100.00;100413.38;4994346;28;20224;-81
2021/12/30 00:54:10;;;;;;;10.93;9.38;;;;;;;13.53;100.00;100423.06;4978996;28;20228;-81
2021/12/30 00:56:37;;;;;;;4.15;1.00;;;13.80;99.90;;;13.57;100.00;100423.06;4944694;28;20206;-81
2021/12/30 00:59:06;;;;;;;1.60;0.40;;;;;;;13.26;100.00;100405.44;4988034;28;20679;-82
2021/12/30 01:01:34;;;;;;;70.65;67.75;;;;;;;13.21;100.00;100412.53;4958086;28;20221;-82
2021/12/30 01:04:03;;;;;;;7.85;1.60;;;12.90;99.90;;;13.20;100.00;100418.72;4964535;28;20212;-82
2021/12/30 01:06:31;;;;;;;4.30;0.82;;;;;;;13.29;100.00;100411.63;4946782;28;20209;-81
2021/12/30 01:09:00;;;;;;;7.72;1.50;;;;;;;13.14;100.00;100407.19;5007548;28;20212;-82
2021/12/30 01:11:28;;;;;;;5.60;1.15;;;;;;;13.04;100.00;100396.59;5015043;28;20233;-81
2021/12/30 01:14:04;;;;;;;1.58;0.43;;;;;;;13.13;100.00;100412.50;4975320;28;20214;-81
2021/12/30 01:16:41;;;;;;;6.18;1.25;;;;;;;13.14;100.00;100416.94;4995580;28;20211;-82
2021/12/30 01:21:56;;;;;;;6.25;1.40;;;;;;;12.90;100.00;100444.34;4990845;28;20247;-81
2021/12/30 01:24:25;;;;;;;5.22;1.08;;;;;;;13.00;100.00;100467.41;4958932;28;20613;-82
2021/12/30 01:26:54;;;;;;;4.93;1.27;;;;;;;13.08;100.00;100476.25;4947980;28;20209;-81
2021/12/30 01:29:24;;;;;;;4.05;1.00;;;;;;;12.91;100.00;100462.06;4974765;28;20212;-81
2021/12/30 01:31:52;;;;;;;41.10;34.70;;;;;;;13.01;100.00;100500.13;4984768;28;20239;-81
2021/12/30 01:34:22;;;;;;;6.30;1.58;;;12.90;99.90;;;13.33;100.00;100530.25;4974373;28;20212;-81
2021/12/30 01:36:50;;;;;;;4.40;1.20;;;;;;;13.29;100.00;100512.56;4999251;28;20221;-81
2021/12/30 01:39:20;;;;;;;1.63;0.47;;;;;;;13.20;100.00;100512.56;4956508;28;20581;-81
2021/12/30 01:41:50;;;;;;;8.88;3.90;;;13.10;99.90;;;13.48;100.00;100547.06;4941619;28;20229;-81
2021/12/30 01:44:22;;;;;;;1.80;0.85;;;13.20;99.90;;;13.35;100.00;100509.88;4946818;28;20236;-81
2021/12/30 01:46:51;;;;;;;0.90;0.60;;;;;;;13.10;100.00;100495.72;4976317;28;20205;-82
2021/12/30 01:49:21;;;;;;;2.50;0.95;;;;;;;13.06;100.00;100501.91;4963906;28;20204;-81
2021/12/30 01:51:53;;;;;;;1.20;0.80;;;13.10;99.90;;;13.20;100.00;100501.06;4996551;28;20228;-82
2021/12/30 01:54:23;;;;;;;0.85;0.50;;;13.00;99.90;;;13.09;100.00;100501.03;4980358;28;20663;-81
2021/12/30 01:56:53;;;;;;;0.82;0.60;;;13.00;99.90;;;13.11;100.00;100501.91;4996602;28;20208;-82
2021/12/30 01:59:24;;;;;;;0.95;0.60;;;13.00;99.90;;;12.98;100.00;100506.28;4963529;28;20222;-82
2021/12/30 02:01:56;;;;;;;1.13;0.85;;;;;;;12.71;100.00;100485.03;4982143;28;20710;-82
2021/12/30 02:04:32;;;;;;;0.10;0.10;;;;;;;12.85;100.00;100503.63;4952503;28;20212;-81
2021/12/30 02:07:01;;;;;;;0.10;0.10;;;;;;;12.85;100.00;100517.78;5016036;28;20197;-82
2021/12/30 02:09:30;;;;;;;0.10;0.10;;;;;;;12.89;100.00;100513.38;4979007;28;20205;-82
2021/12/30 02:12:00;;;;;;;0.10;0.10;;;;;;;12.74;100.00;100507.16;4985266;28;20232;-81
2021/12/30 02:14:33;;;;;;;0.00;0.00;;;12.70;99.90;;;12.81;100.00;100510.72;4995964;28;20225;-82
2021/12/30 02:17:04;;;;;;;0.20;0.20;;;12.70;99.90;;;12.66;100.00;100500.97;4972535;28;20215;-82
2021/12/30 02:19:34;;;;;;;0.32;0.32;;;12.60;99.90;;;12.56;100.00;100499.16;4947720;28;20600;-82
2021/12/30 02:22:03;;;;;;;0.30;0.30;;;12.70;99.90;;;12.87;100.00;100528.41;5020618;23;20230;-79
2021/12/30 02:24:31;;;;;;;0.50;0.43;;;;;;;12.79;100.00;100523.09;5016272;28;20211;-79
2021/12/30 02:27:00;;;;;;;0.82;0.55;;;;;;;12.90;100.00;100541.69;5008417;28;20203;-79
2021/12/30 02:29:28;;;;;;;1.02;0.68;;;;;;;12.95;100.00;100538.16;5016601;28;20195;-79
2021/12/30 02:31:56;;;;;;;1.77;0.90;;;;;;;12.89;100.00;100540.78;5002849;28;20233;-79
2021/12/30 02:34:25;;;;;;;1.95;0.80;;;;;;;12.91;100.00;100549.66;5016674;28;20211;-79
2021/12/30 02:36:53;;;;;;;1.92;0.85;;;;;;;12.77;100.00;100548.75;4999668;28;20204;-79
2021/12/30 02:39:23;;;;;;;1.08;0.60;;;;;;;12.83;100.00;100548.75;4987703;28;20206;-79
2021/12/30 02:41:52;;;;;;;1.38;0.80;;;;;;;12.88;100.00;100552.28;5013377;28;20223;-79
2021/12/30 02:44:20;;;;;;;0.68;0.40;;;;;;;12.85;100.00;100546.09;5008544;28;20210;-79
2021/12/30 02:46:53;;;;;;;0.40;0.40;;;12.80;99.90;;;12.98;100.00;100572.66;5010924;28;20208;-79
2021/12/30 02:49:22;;;;;;;1.70;1.00;;;;;;;13.02;100.00;100562.97;5011726;28;20593;-79
2021/12/30 02:51:51;;;;;;;1.15;0.75;;;;;;;12.90;100.00;100547.88;4998512;28;20220;-80
2021/12/30 02:54:19;;;;;;;0.28;0.28;;;;;;;13.11;100.00;100581.56;5012860;28;20203;-79
2021/12/30 02:56:47;;;;;;;1.77;0.77;;;;;;;13.06;100.00;100573.59;5013365;28;20203;-79
2021/12/30 02:59:18;;;;;;;0.30;0.30;;;;;;;13.10;100.00;100574.47;4981202;28;20211;-79
2021/12/30 03:01:47;;;;;;;0.20;0.20;;;;;;;13.30;100.00;100601.09;5009310;28;20227;-79
2021/12/30 03:04:16;;;;;;;1.52;0.75;;;;;;;13.31;100.00;100597.53;5009827;28;20203;-79
2021/12/30 03:06:44;;;;;;;1.02;0.40;;;;;;;13.30;100.00;100580.72;4981224;28;20203;-79
2021/12/30 03:09:12;;;;;;;0.95;0.50;;;;;;;13.29;100.00;100594.00;4987540;28;20215;-80
2021/12/30 03:11:41;;;;;;;2.20;1.13;;;;;;;13.30;100.00;100588.69;4964441;28;20585;-78
2021/12/30 03:14:09;;;;;;;1.38;0.73;;;;;;;13.25;100.00;100593.13;5010172;28;20215;-79
2021/12/30 03:16:37;;;;;;;1.60;0.70;;;;;;;13.16;100.00;100592.19;5003966;28;20220;-79
2021/12/30 03:19:06;;;;;;;2.33;0.98;;;;;;;13.29;100.00;100618.78;4995667;28;20203;-78
2021/12/30 03:21:34;;;;;;;1.33;0.80;;;;;;;13.29;100.00;100612.59;5025076;28;21959;-79
2021/12/30 03:24:05;;;;;;;1.13;0.70;;;13.20;99.90;;;13.24;100.00;100607.28;4997095;28;20210;-79
2021/12/30 03:26:35;;;;;;;1.75;0.82;;;;;;;13.18;100.00;100607.28;4983953;28;20204;-78
2021/12/30 03:29:05;;;;;;;0.65;0.43;;;13.20;99.90;;;13.31;100.00;100626.75;5044292;28;20207;-79
2021/12/30 03:31:33;;;;;;;0.40;0.40;;;;;;;13.53;100.00;100646.25;5044550;28;20211;-79
2021/12/30 03:34:02;;;;;;;0.50;0.47;;;;;;;13.45;100.00;100641.81;5012380;28;20230;-79
2021/12/30 03:36:32;;;;;;;0.32;0.30;;;;;;;13.68;100.00;100664.84;5007782;28;20202;-80
2021/12/30 03:39:01;;;;;;;1.60;0.95;;;;;;;13.55;100.00;100628.53;4996220;28;20210;-78
2021/12/30 03:41:30;;;;;;;0.93;0.60;;;;;;;13.43;100.00;100619.69;5009870;28;20230;-79
2021/12/30 03:44:00;;;;;;;0.77;0.50;;;13.40;99.90;;;13.34;100.00;100616.13;5013235;28;20208;-79
2021/12/30 03:46:29;;;;;;;2.28;1.00;;;;;;;13.22;100.00;100610.81;4980285;28;20218;-79
2021/12/30 03:48:58;;;;;;;2.17;0.90;;;;;;;13.27;100.00;100614.34;4995611;28;20207;-79
2021/12/30 03:51:27;;;;;;;2.00;0.88;;;;;;;13.19;100.00;100613.47;4991173;28;20200;-80
2021/12/30 03:53:57;;;;;;;1.80;0.82;;;13.20;99.90;;;13.31;100.00;100626.75;5026837;28;20218;-79
2021/12/30 03:56:28;;;;;;;1.17;0.60;;;13.20;99.90;;;13.23;100.00;100609.94;4997966;28;20214;-79
2021/12/30 03:58:58;;;;;;;0.30;0.20;;;13.20;99.90;;;13.31;100.00;100618.78;4992076;28;20204;-79
2021/12/30 04:01:27;;;;;;;2.53;0.90;;;13.30;99.90;;;13.43;100.00;100632.06;5027411;28;20233;-79
2021/12/30 04:03:56;;;;;;;0.40;0.40;;;13.40;99.90;;;13.52;100.00;100641.81;5011294;28;20203;-78
2021/12/30 04:06:25;;;;;;;0.88;0.60;;;;;;;13.54;100.00;100640.06;4984784;28;20199;-79
2021/12/30 04:08:55;;;;;;;0.90;0.70;;;;;;;13.58;100.00;100625.88;4986591;28;20200;-79
2021/12/30 04:11:33;;;;;;;0.93;0.55;;;13.40;99.90;;;13.51;100.00;100625.00;4996397;28;20206;-79
2021/12/30 04:14:05;;;;;;;0.80;0.60;;;13.40;99.90;;;13.57;100.00;100629.44;4995936;28;20202;-80
2021/12/30 04:16:34;;;;;;;10.57;5.55;;;13.50;99.90;;;13.73;100.00;100632.06;5002720;28;20203;-81
2021/12/30 04:19:04;;;;;;;4.72;0.98;;;13.50;99.90;;;13.62;100.00;100622.34;5030270;28;20204;-81
2021/12/30 04:21:32;;;;;;;6.78;1.40;;;13.50;99.90;;;13.48;100.00;100617.03;4981163;28;20231;-79
2021/12/30 04:24:02;;;;;;;2.65;0.63;;;13.50;99.90;;;13.46;100.00;100621.44;5037226;28;20200;-79
2021/12/30 04:26:31;;;;;;;1.27;0.47;;;;;;;13.52;100.00;100623.22;5000826;28;20207;-80
2021/12/30 04:28:59;;;;;;;2.05;0.70;;;;;;;13.59;100.00;100631.19;5013296;28;20219;-78
2021/12/30 04:31:27;;;;;;;4.40;1.20;;;;;;;13.49;100.00;100625.88;5031981;28;20196;-79
2021/12/30 04:33:56;;;;;;;0.10;0.10;;;;;;;13.37;100.00;100619.69;5033267;28;20211;-80
2021/12/30 04:36:24;;;;;;;0.10;0.10;;;;;;;13.29;100.00;100628.53;4985368;28;20203;-79
2021/12/30 04:38:53;;;;;;;0.00;0.00;;;;;;;13.57;100.00;100650.69;5022901;28;20221;-80
2021/12/30 04:41:21;;;;;;;0.00;0.00;;;;;;;13.42;100.00;100644.47;4967348;28;20227;-80
2021/12/30 04:43:49;;;;;;;0.00;0.00;;;;;;;13.33;100.00;100639.16;4997242;28;20203;-79
2021/12/30 04:46:17;;;;;;;0.25;0.25;;;;;;;13.23;100.00;100636.50;5013185;28;20199;-78
2021/12/30 04:48:47;;;;;;;0.00;0.00;;;;;;;13.27;100.00;100648.88;5018708;28;20215;-79
2021/12/30 04:51:16;;;;;;;0.00;0.00;;;;;;;13.32;100.00;100655.09;5019030;28;20215;-79
2021/12/30 04:53:44;;;;;;;0.00;0.00;;;13.30;99.90;;;13.39;100.00;100671.03;4979933;28;20199;-79
2021/12/30 04:56:13;;;;;;;0.00;0.00;;;;;;;13.26;100.00;100660.41;5035299;28;20207;-80
2021/12/30 04:58:41;;;;;;;0.00;0.00;;;13.40;99.90;;;13.36;100.00;100675.47;5000226;28;20209;-80
2021/12/30 05:01:09;;;;;;;0.00;0.00;;;;;;;13.26;100.00;100671.03;4992767;28;20234;-79
2021/12/30 05:03:39;;;;;;;0.00;0.00;;;;;;;13.19;100.00;100670.13;5017658;28;20211;-80
2021/12/30 05:06:07;;;;;;;0.00;0.00;;;;;;;13.16;100.00;100670.06;5004409;28;20214;-80
2021/12/30 05:08:35;;;;;;;0.00;0.00;;;;;;;13.14;100.00;100671.84;5001565;28;20206;-80
2021/12/30 05:11:05;;;;;;;0.00;0.00;;;;;;;13.15;100.00;100670.97;5017946;28;20206;-79
2021/12/30 05:13:33;;;;;;;0.00;0.00;;;;;;;13.19;100.00;100670.13;5009793;28;20232;-79
2021/12/30 05:16:02;;;;;;;0.00;0.00;;;;;;;13.20;100.00;100668.34;4993556;28;20207;-80
2021/12/30 05:18:32;;;;;;;0.00;0.00;;;;;;;13.18;100.00;100667.47;4986518;28;20231;-79
2021/12/30 05:21:05;;;;;;;0.00;0.00;;;13.20;99.90;;;13.23;100.00;100673.66;5016109;28;20222;-79
2021/12/30 05:23:33;;;;;;;0.00;0.00;;;;;;;13.29;100.00;100671.91;5006637;28;20227;-79
2021/12/30 05:26:02;;;;;;;0.00;0.00;;;;;;;13.52;100.00;100681.69;5034084;28;20231;-79
2021/12/30 05:28:30;;;;;;;0.00;0.00;;;;;;;13.64;100.00;100679.03;5002031;28;20203;-80
2021/12/30 05:30:58;;;;;;;0.00;0.00;;;;;;;13.80;100.00;100685.22;4985898;28;20199;-79
2021/12/30 05:33:26;;;;;;;0.00;0.00;;;;;;;13.74;100.00;100670.16;4996961;28;20231;-79
2021/12/30 05:35:54;;;;;;;0.00;0.00;;;;;;;13.84;100.00;100682.56;5026483;28;20214;-79
2021/12/30 05:38:23;;;;;;;0.00;0.00;;;;;;;13.81;100.00;100677.25;5017959;28;20207;-80
2021/12/30 05:40:51;;;;;;;0.00;0.00;;;;;;;13.93;100.00;100689.66;5016195;28;20199;-79
2021/12/30 05:43:20;;;;;;;0.10;0.10;;;;;;;14.09;100.00;100686.97;5014407;28;20246;-79
2021/12/30 05:45:48;;;;;;;0.00;0.00;;;;;;;13.92;100.00;100677.25;4980261;28;20218;-79
2021/12/30 05:48:16;;;;;;;0.57;0.40;;;;;;;13.82;100.00;100665.75;5016907;28;20216;-80
2021/12/30 05:50:44;;;;;;;3.88;1.05;;;;;;;13.74;100.00;100663.09;5016283;28;20199;-79
2021/12/30 05:53:13;;;;;;;0.00;0.00;;;;;;;13.93;100.00;100674.59;5013101;28;20236;-79
2021/12/30 05:55:41;;;;;;;0.00;0.00;;;;;;;13.83;100.00;100666.63;4981419;28;20204;-79
2021/12/30 05:58:09;;;;;;;3.97;1.13;;;;;;;13.85;100.00;100671.06;4978566;28;20210;-79
2021/12/30 06:00:38;;;;;;;4.10;1.23;;;;;;;13.94;100.00;100691.44;4998448;28;20208;-79
2021/12/30 06:03:06;;;;;;;3.28;1.00;;;;;;;13.90;100.00;100684.34;5014238;28;20223;-80
2021/12/30 06:05:34;;;;;;;4.45;1.10;;;;;;;13.98;100.00;100690.53;4984468;28;20211;-78
2021/12/30 06:08:28;;;;;;;3.75;1.20;;;13.80;99.90;;;13.91;100.00;100699.41;4994109;28;20210;-81
2021/12/30 06:11:08;;;;;;;0.00;0.00;;;;;;;14.15;100.00;100706.47;5015489;28;20222;-78
2021/12/30 06:13:54;;;;;;;0.88;0.30;;;14.00;99.90;;;14.06;100.00;100692.31;5021578;28;20214;-79
2021/12/30 06:16:22;;;;;;;3.60;1.13;;;;;;;14.03;100.00;100686.09;4988781;28;20223;-79
2021/12/30 06:19:10;;;;;;;1.90;0.68;;;13.90;99.90;;;14.05;100.00;100693.19;4997182;28;20204;-81
2021/12/30 06:21:39;;;;;;;0.00;0.00;;;;;;;13.87;100.00;100687.88;4999973;28;20227;-84
2021/12/30 06:24:07;;;;;;;0.05;0.05;;;;;;;13.90;100.00;100695.88;4983643;28;20196;-84
2021/12/30 06:26:35;;;;;;;0.30;0.30;;;;;;;13.85;100.00;100694.97;4979507;28;20200;-81
2021/12/30 06:29:07;;;;;;;1.17;0.55;;;;;;;13.84;100.00;100697.63;5014996;28;20226;-83
2021/12/30 06:31:37;;;;;;;0.20;0.20;;;;;;;13.94;100.00;100710.03;5004881;28;20231;-80
2021/12/30 06:34:05;;;;;;;0.90;0.60;;;;;;;13.94;100.00;100715.34;4992888;28;20208;-79
2021/12/30 06:36:34;;;;;;;1.30;0.70;;;13.90;99.90;;;13.98;100.00;100717.13;5008267;28;20584;-81
2021/12/30 06:39:04;;;;;;;0.93;0.60;;;;;;;13.98;100.00;100714.47;4999474;28;20204;-80
2021/12/30 06:41:32;;;;;;;0.65;0.45;;;;;;;14.03;100.00;100716.25;5010588;28;20714;-80
2021/12/30 06:44:01;;;;;;;0.10;0.10;;;;;;;13.95;100.00;100718.00;4996398;28;20203;-80
2021/12/30 06:46:30;;;;;;;3.50;1.65;;;;;;;14.00;100.00;100726.00;5012296;28;20207;-81
2021/12/30 06:48:59;;;;;;;1.92;0.90;;;;;;;13.90;100.00;100710.94;4997077;28;20211;-82
2021/12/30 06:51:53;;;;;;;2.40;1.00;;;13.90;99.90;;;13.87;100.00;100714.47;5014435;28;20234;-85
2021/12/30 06:54:49;;;;;;;1.63;0.70;;;13.90;99.90;;;13.96;100.00;100735.75;5009336;28;20202;-82
2021/12/30 06:57:28;;;;;;;1.77;0.90;;;;;;;14.09;100.00;100733.97;5003812;28;20214;-79
2021/12/30 06:59:57;;;;;;;1.20;0.63;;;14.00;99.90;;;14.08;100.00;100733.09;4978611;28;20207;-79
2021/12/30 07:02:26;;;;;;;1.23;0.52;;;;;;;14.04;100.00;100735.75;4990663;28;20234;-80
2021/12/30 07:04:54;;;;;;;2.33;0.90;;;;;;;14.10;100.00;100749.91;4985541;28;20218;-80
2021/12/30 07:07:23;;;;;;;1.23;0.65;;;;;;;14.15;100.00;100760.56;4997072;28;20207;-80
2021/12/30 07:09:51;;;;;;;0.30;0.30;;;;;;;14.17;100.00;100760.56;4996324;28;20199;-79
2021/12/30 07:12:19;;;;;;;1.38;0.50;;;;;;;14.11;100.00;100756.13;4974516;28;20211;-79
2021/12/30 07:14:49;;;;;;;2.25;0.90;;;14.00;99.90;;;14.01;100.00;100746.38;4987132;28;20199;-80
2021/12/30 07:17:17;;;;;;;0.20;0.20;;;;;;;13.99;100.00;100748.16;4996052;28;20204;-80
2021/12/30 07:19:45;;;;;;;0.20;0.20;;;;;;;14.10;100.00;100775.63;4970937;28;20300;-79
2021/12/30 07:22:14;;;;;;;0.10;0.10;;;;;;;14.03;100.00;100765.88;4982638;28;20239;-80
2021/12/30 07:25:03;;;;;;;0.00;0.00;;;;;;;14.20;100.00;100787.16;4984122;28;20222;-79
2021/12/30 07:27:31;;;;;;;0.10;0.10;;;;;;;14.11;100.00;100764.09;4998913;28;20215;-79
2021/12/30 07:29:59;;;;;;;3.10;1.10;;;;;;;14.14;100.00;100774.75;4981557;28;20129;-82
2021/12/30 07:33:06;;;;;;;35.22;31.80;;;14.10;99.90;;;14.11;100.00;100769.44;4966456;28;20219;-82
2021/12/30 07:35:46;;;;;;;1.20;0.47;;;14.00;99.90;;;14.12;100.00;100776.50;5022904;28;20203;-82
2021/12/30 07:38:16;;;;;;;0.00;0.00;;;;;;;14.04;100.00;100773.84;5012879;28;20215;-80
2021/12/30 07:40:44;;;;;;;0.00;0.00;;;;;;;13.98;100.00;100757.00;5003906;28;20223;-79
2021/12/30 07:43:12;;;;;;;0.00;0.00;;;;;;;13.88;100.00;100760.56;4974697;28;20238;-80
2021/12/30 07:45:41;;;;;;;0.00;0.00;;;;;;;13.83;100.00;100757.91;4961978;28;20204;-80
2021/12/30 07:48:09;;;;;;;0.00;0.00;;;;;;;13.87;100.00;100775.63;4991538;28;20575;-81
2021/12/30 07:50:37;;;;;;;0.00;0.00;;;;;;;13.80;100.00;100762.31;4976638;28;20203;-80
2021/12/30 07:53:05;;;;;;;0.00;0.00;;;;;;;13.64;100.00;100761.41;5005649;23;20238;-85
2021/12/30 07:55:34;;;;;;;0.00;0.00;;;;;;;13.64;100.00;100767.63;4976922;28;20220;-84
2021/12/30 07:58:02;;;;;;;0.00;0.00;;;;;;;13.57;100.00;100773.81;4973976;28;20225;-85
2021/12/30 08:00:30;;;;;;;0.00;0.00;;;;;;;13.62;100.00;100779.13;4976727;28;20206;-85
2021/12/30 08:02:59;;;;;;;0.00;0.00;;;;;;;13.58;100.00;100785.31;4992533;28;20220;-86
2021/12/30 08:05:28;;;;;;;0.00;0.00;;;;;;;13.56;100.00;100787.09;4992589;28;20200;-86
2021/12/30 08:07:57;;;;;;;0.00;0.00;;;;;;;13.61;100.00;100807.47;4970712;28;20232;-85
2021/12/30 08:10:26;;;;;;;0.00;0.00;;;;;;;13.59;100.00;100800.38;4993560;28;20211;-85
2021/12/30 08:12:55;;;;;;;0.00;0.00;;;;;;;13.63;100.00;100818.09;4975177;28;20227;-86
2021/12/30 08:15:24;;;;;;;0.00;0.00;;;13.60;99.90;;;13.64;100.00;100825.19;5013492;28;20211;-85
2021/12/30 08:17:54;;;;;;;0.00;0.00;;;;;;;13.75;100.00;100832.31;4958686;28;20228;-85
2021/12/30 08:20:22;;;;;;;0.00;0.00;;;;;;;13.78;100.00;100837.63;4994059;28;20215;-85
2021/12/30 08:22:52;;;;;;;0.00;0.00;;;13.70;99.90;;;13.88;100.00;100835.00;4988258;23;20257;-84
2021/12/30 08:25:21;;;;;;;0.03;0.03;;;13.80;99.90;;;13.93;100.00;100842.09;4990281;28;20225;-83
2021/12/30 08:27:50;;;;;;;0.47;0.20;;;;;;;14.04;100.00;100835.03;4998879;28;20213;-83
2021/12/30 08:30:19;;;;;;;1.88;0.60;;;13.90;99.90;;;14.20;100.00;100837.69;4996490;28;20576;-83
2021/12/30 08:32:48;;;;;;;1.17;0.75;;;;;;;14.42;100.00;100836.88;5027295;28;20231;-83
2021/12/30 08:35:20;;;;;;;1.35;0.63;;;14.20;99.90;;;14.51;100.00;100836.88;5007065;28;20217;-83
2021/12/30 08:37:50;;;;;;;2.88;1.23;;;14.30;99.90;;;14.39;100.00;100819.09;4982854;28;20219;-85
2021/12/30 08:40:21;;;;;;;16.58;11.02;;;;;;;14.36;100.00;100819.09;4995777;28;20211;-86
2021/12/30 08:42:49;;;;;;;0.20;0.20;;;;;;;14.46;100.00;100829.78;5013196;28;20254;-84
2021/12/30 08:45:18;;;;;;;0.10;0.10;;;12.00;99.90;;;14.56;100.00;100835.09;5006804;28;20325;-83
2021/12/30 08:47:47;;;;;;;0.45;0.45;;;;;;;14.70;100.00;100832.41;4983852;28;20216;-81
2021/12/30 08:50:16;;;;;;;0.45;0.45;;;14.50;99.90;;;14.64;100.00;100808.47;5010265;28;20212;-79
2021/12/30 08:52:47;;;;;;;1.13;0.80;;;14.50;99.90;;;14.64;100.00;100816.47;5022508;28;20245;-82
2021/12/30 08:55:15;;;;;;;0.85;0.60;;;;;;;14.70;100.00;100811.13;5011367;28;20206;-81
2021/12/30 08:57:45;;;;;;;1.30;0.80;;;14.70;99.90;;;14.74;100.00;100815.56;4989625;28;20218;-83
2021/12/30 09:00:41;;;;;;;0.70;0.63;;;14.70;99.90;;;14.65;100.00;100803.16;5003479;28;20222;-80
2021/12/30 09:03:10;;;;;;;0.60;0.50;;;;;;;14.81;100.00;100811.97;5022126;28;20250;-81
2021/12/30 09:05:40;;;;;;;3.45;1.30;;;;;;;14.74;100.00;100804.91;5016920;28;20296;-82
2021/12/30 09:08:09;;;;;;;4.72;1.50;;;;;;;14.80;100.00;100817.31;5024817;28;20217;-83
2021/12/30 09:10:40;;;;;;;3.75;1.20;;;14.70;99.90;;;14.79;100.00;100819.09;4992395;28;20218;-84
2021/12/30 09:13:09;;;;;;;7.13;1.70;;;;;;;14.82;100.00;100824.41;4992057;28;20237;-84
2021/12/30 09:15:38;;;;;;;6.55;1.58;;;14.80;99.90;;;14.84;100.00;100813.75;5024973;28;20210;-84
2021/12/30 09:18:07;;;;;;;6.82;1.80;;;;;;;14.90;100.00;100822.63;5003417;28;20211;-83
2021/12/30 09:20:39;;;;;;;4.80;1.17;;;14.80;99.90;;;14.91;100.00;100820.84;5003868;28;20222;-82
2021/12/30 09:23:09;;;;;;;4.63;1.45;;;14.90;99.90;;;14.91;100.00;100826.16;5005427;28;20230;-82
2021/12/30 09:25:39;;;;;;;5.38;1.40;;;14.90;99.90;;;14.97;100.00;100820.81;5013922;28;20205;-84
2021/12/30 09:28:12;;;;;;;0.98;0.68;;;14.90;99.90;;;14.93;100.00;100843.91;5015169;28;20183;-80
2021/12/30 09:30:43;;;;;;;1.23;0.73;;;14.90;99.90;;;15.01;100.00;100860.75;4999944;28;20205;-83
2021/12/30 09:33:15;;;;;;;0.30;0.30;;;;;;;15.05;100.00;100851.88;5007840;28;20237;-84
2021/12/30 09:35:47;;;;;;;0.30;0.30;;;15.20;99.90;;;15.02;100.00;100854.53;4998164;28;20214;-82
2021/12/30 09:38:20;;;;;;;1.75;0.82;;;15.00;99.90;;;15.03;100.00;100856.31;5040773;28;20202;-83
2021/12/30 09:40:48;;;;;;;0.60;0.50;;;;;;;15.05;100.00;100857.19;5004753;28;20202;-84
2021/12/30 09:43:17;;;;;;;5.15;3.25;;;;;;;15.08;100.00;100860.75;4983071;28;20234;-86
2021/12/30 09:45:45;;;;;;;0.98;0.52;;;;;;;15.07;100.00;100866.97;5019565;28;20208;-84
2021/12/30 09:48:15;;;;;;;2.10;0.70;;;15.10;99.90;;;15.08;100.00;100879.38;4996854;28;20691;-83
2021/12/30 09:50:49;;;;;;;2.25;0.73;;;15.10;99.90;;;15.10;100.00;100880.28;4989889;28;20211;-84
2021/12/30 09:53:23;;;;;;;374.88;345.48;;;15.10;99.90;;;15.14;100.00;100879.38;4994069;28;20214;-84
2021/12/30 09:55:55;;;;;;;;;;;15.00;99.90;;;15.23;100.00;100884.69;5000766;28;20199;-84
2021/12/30 09:58:23;;;;;;;812.58;759.35;;;;;;;15.13;100.00;100882.94;5006835;28;20426;-83
2021/12/30 10:00:52;;;;;;;8.55;1.90;;;;;;;15.11;100.00;100890.94;5012798;28;20207;-83
2021/12/30 10:03:25;;;;;;;2.05;0.90;;;;;;;15.09;100.00;100883.81;5003893;28;20242;-85
2021/12/30 10:05:53;;;;;;;189.07;172.38;;;;;;;15.13;100.00;100891.81;4986428;28;20215;-83
2021/12/30 10:08:25;;;;;;;2.28;0.63;;;15.10;99.90;;;15.16;100.00;100885.59;5002155;28;20203;-86
2021/12/30 10:10:58;;;;;;;4.50;1.10;;;15.10;99.90;;;15.12;100.00;100890.03;5000579;28;20207;-84
2021/12/30 10:13:30;;;;;;;5.15;1.23;;;15.10;99.90;;;15.12;100.00;100898.03;4999858;28;20224;-82
2021/12/30 10:16:10;;;;;;;26.52;22.42;;;15.10;99.90;;;15.10;100.00;100883.81;5007262;28;20557;-81
2021/12/30 10:19:03;;;;;;;0.70;0.45;;;14.90;99.90;;;15.10;100.00;100897.16;4985274;28;20291;-83
2021/12/30 10:21:40;;;;;;;703.65;650.58;;;15.10;99.90;;;15.06;100.00;100884.72;5013456;28;20202;-84
2021/12/30 10:24:11;;;;;;;442.10;409.27;;;15.10;99.90;;;15.04;100.00;100882.06;5000091;28;20226;-81
2021/12/30 10:26:53;;;;;;;558.65;511.70;;;15.10;99.90;;;15.14;100.00;100887.38;4985555;28;20204;-80
2021/12/30 10:29:21;;;;;;;558.50;516.67;;;;;;;15.15;100.00;100875.81;4986859;28;20204;-83
2021/12/30 10:31:53;;;;;;;1.92;1.00;;;;;;;15.10;100.00;100886.50;5002528;28;20231;-82
2021/12/30 10:34:22;;;;;;;0.38;0.38;;;;;;;15.08;100.00;100874.94;5027850;28;20203;-84
2021/12/30 10:36:50;;;;;;;7.13;6.57;;;15.10;99.90;;;15.09;100.00;100889.16;4995726;28;20261;-83
2021/12/30 10:39:23;;;;;;;2.20;0.60;;;15.10;99.90;;;15.14;100.00;100879.38;4993521;28;20210;-82
2021/12/30 10:42:19;;;;;;;5.88;1.67;;;15.20;99.90;;;15.23;100.00;100888.22;4996708;28;20728;-83
2021/12/30 10:44:57;;;;;;;2.60;0.65;;;15.20;99.90;;;15.24;100.00;100881.13;4997073;28;20222;-85
2021/12/30 10:47:50;;;;;;;7.03;1.48;;;15.20;99.90;;;15.22;100.00;100878.47;4984015;28;20203;-80
2021/12/30 10:50:24;;;;;;;4.95;1.00;;;15.20;99.90;;;15.28;100.00;100877.56;5012137;28;20207;-85
2021/12/30 10:52:55;;;;;;;2.67;0.75;;;15.30;99.90;;;15.31;100.00;100891.75;4987308;28;20227;-83
2021/12/30 10:55:24;;;;;;;0.00;0.00;;;15.30;99.90;;;15.26;100.00;100887.34;4991902;28;20218;-81
2021/12/30 10:57:55;;;;;;;0.00;0.00;;;15.30;99.90;;;15.23;100.00;100888.22;5018502;28;20211;-87
2021/12/30 11:00:34;;;;;;;0.75;0.50;;;15.30;99.90;;;15.26;100.00;100877.56;5001902;28;20217;-82
2021/12/30 11:03:24;;;;;;;7.47;1.40;;;15.30;99.90;;;15.34;100.00;100875.75;5003302;28;20226;-83
2021/12/30 11:06:18;;;;;;;7.07;1.30;;;15.20;99.90;;;15.32;100.00;100892.66;4981019;28;20207;-85
2021/12/30 11:08:50;;;;;;;3.55;0.77;;;15.30;99.90;;;15.35;100.00;100888.19;4988302;28;20199;-84